createdAt,value
2019-01-21T00:00:35.928Z,101417.44
2019-01-21T00:03:03.597Z,101423.09
2019-01-21T00:05:30.960Z,101414.08
2019-01-21T00:07:59.184Z,101422.28
2019-01-21T00:10:27.274Z,101425.67
2019-01-21T00:12:54.392Z,101420.69
2019-01-21T00:15:23.405Z,101421.52
2019-01-21T00:17:51.705Z,101422.95
2019-01-21T00:20:19.925Z,101425.53
2019-01-21T00:22:47.280Z,101420.22
2019-01-21T00:25:14.585Z,101424.27
2019-01-21T00:27:43.644Z,101422.20
2019-01-21T00:30:11.074Z,101426.19
2019-01-21T00:32:38.456Z,101419.19
2019-01-21T00:35:06.055Z,101414.13
2019-01-21T00:37:35.022Z,101422.47
2019-01-21T00:40:04.031Z,101417.88
2019-01-21T00:42:31.324Z,101423.23
2019-01-21T00:44:58.559Z,101426.28
2019-01-21T00:47:29.814Z,101418.96
2019-01-21T00:49:55.027Z,101419.63
2019-01-21T00:52:22.259Z,101419.13
2019-01-21T00:54:51.409Z,101424.23
2019-01-21T00:57:18.742Z,101425.83
2019-01-21T00:59:45.852Z,101418.52
2019-01-21T01:02:13.141Z,101425.56
2019-01-21T01:04:41.365Z,101423.45
2019-01-21T01:07:08.739Z,101428.48
2019-01-21T01:09:35.855Z,101430.40
2019-01-21T01:12:04.989Z,101426.95
2019-01-21T01:14:32.135Z,101429.05
2019-01-21T01:17:01.297Z,101425.66
2019-01-21T01:19:28.612Z,101430.50
2019-01-21T01:21:55.909Z,101427.10
2019-01-21T01:24:24.108Z,101430.72
2019-01-21T01:26:51.224Z,101426.54
2019-01-21T01:29:18.533Z,101426.54
2019-01-21T01:31:45.820Z,101440.76
2019-01-21T01:34:13.174Z,101447.30
2019-01-21T01:36:40.527Z,101444.78
2019-01-21T01:39:10.696Z,101438.91
2019-01-21T01:41:37.818Z,101440.13
2019-01-21T01:44:05.368Z,101436.52
2019-01-21T01:46:32.675Z,101436.52
2019-01-21T01:49:00.193Z,101437.88
2019-01-21T01:51:28.463Z,101435.55
2019-01-21T01:53:55.800Z,101453.03
2019-01-21T01:56:24.723Z,101439.97
2019-01-21T01:58:52.458Z,101441.98
2019-01-21T02:01:19.729Z,101430.46
2019-01-21T02:03:47.077Z,101432.72
2019-01-21T02:06:14.551Z,101429.27
2019-01-21T02:08:41.853Z,101444.97
2019-01-21T02:11:09.251Z,101436.99
2019-01-21T02:13:38.432Z,101441.92
2019-01-21T02:16:07.463Z,101437.94
2019-01-21T02:18:36.632Z,101435.77
2019-01-21T02:21:05.093Z,101443.40
2019-01-21T02:23:35.714Z,101436.59
2019-01-21T02:26:10.366Z,101427.95
2019-01-21T02:29:01.372Z,101440.92
2019-01-21T02:32:10.535Z,101433.26
2019-01-21T02:34:52.619Z,101433.33
2019-01-21T02:38:01.023Z,101436.65
2019-01-21T02:40:50.354Z,101434.80
2019-01-21T02:43:46.772Z,101439.56
2019-01-21T02:47:00.838Z,101429.30
2019-01-21T02:50:06.871Z,101430.58
2019-01-21T02:53:24.585Z,101429.78
2019-01-21T02:56:15.378Z,101427.55
2019-01-21T02:59:13.722Z,101425.45
2019-01-21T03:02:33.183Z,101421.76
2019-01-21T03:05:42.248Z,101422.39
2019-01-21T03:09:03.955Z,101416.36
2019-01-21T03:12:04.743Z,101418.14
2019-01-21T03:15:35.237Z,101418.14
2019-01-21T03:18:45.249Z,101424.17
2019-01-21T03:21:37.028Z,101422.09
2019-01-21T03:24:38.926Z,101422.97
2019-01-21T03:27:50.625Z,101421.11
2019-01-21T03:30:58.977Z,101419.19
2019-01-21T03:33:58.097Z,101413.88
2019-01-21T03:37:28.293Z,101413.58
2019-01-21T03:40:42.340Z,101411.16
2019-01-21T03:43:56.035Z,101408.02
2019-01-21T03:47:14.055Z,101411.47
2019-01-21T03:49:55.208Z,101401.84
2019-01-21T03:52:40.934Z,101403.59
2019-01-21T03:55:13.029Z,101406.58
2019-01-21T03:58:32.905Z,101409.23
2019-01-21T04:01:44.018Z,101409.23
2019-01-21T04:04:53.741Z,101409.39
2019-01-21T04:07:52.665Z,101409.39
2019-01-21T04:11:03.215Z,101410.98
2019-01-21T04:14:22.228Z,101407.84
2019-01-21T04:17:14.537Z,101407.84
2019-01-21T04:20:14.252Z,101400.86
2019-01-21T04:23:21.768Z,101398.59
2019-01-21T04:26:42.804Z,101398.59
2019-01-21T04:30:03.855Z,101402.45
2019-01-21T04:32:57.802Z,101404.61
2019-01-21T04:36:09.366Z,101404.61
2019-01-21T04:39:11.454Z,101408.80
2019-01-21T04:42:10.669Z,101401.97
2019-01-21T04:45:33.607Z,101400.52
2019-01-21T04:48:33.080Z,101400.52
2019-01-21T04:51:22.400Z,101391.36
2019-01-21T04:54:14.223Z,101391.36
2019-01-21T04:57:25.145Z,101396.27
2019-01-21T05:00:07.310Z,101396.15
2019-01-21T05:03:19.278Z,101388.27
2019-01-21T05:05:58.654Z,101388.27
2019-01-21T05:09:04.878Z,101399.27
2019-01-21T05:12:25.893Z,101400.14
2019-01-21T05:15:35.655Z,101400.14
2019-01-21T05:18:15.882Z,101406.75
2019-01-21T05:21:26.588Z,101406.75
2019-01-21T05:24:45.449Z,101409.42
2019-01-21T05:28:02.210Z,101419.27
2019-01-21T05:31:32.330Z,101418.12
2019-01-21T05:34:41.352Z,101414.38
2019-01-21T05:37:26.289Z,101414.38
2019-01-21T05:40:32.670Z,101416.50
2019-01-21T05:43:36.612Z,101416.50
2019-01-21T05:46:25.291Z,101420.04
2019-01-21T05:49:22.932Z,101422.28
2019-01-21T05:52:09.250Z,101426.87
2019-01-21T05:55:10.738Z,101426.87
2019-01-21T05:58:28.576Z,101428.34
2019-01-21T06:01:37.239Z,101419.15
2019-01-21T06:04:38.063Z,101422.38
2019-01-21T06:07:30.983Z,101422.38
2019-01-21T06:10:13.105Z,101421.34
2019-01-21T06:13:16.097Z,101423.62
2019-01-21T06:16:20.963Z,101417.45
2019-01-21T06:19:28.528Z,101417.45
2019-01-21T06:22:25.142Z,101419.98
2019-01-21T06:25:19.711Z,101424.13
2019-01-21T06:28:24.299Z,101424.34
2019-01-21T06:31:41.349Z,101416.00
2019-01-21T06:34:46.352Z,101417.86
2019-01-21T06:37:59.198Z,101421.56
2019-01-21T06:41:25.092Z,101428.53
2019-01-21T06:44:52.478Z,101429.27
2019-01-21T06:48:08.329Z,101440.38
2019-01-21T06:51:06.934Z,101440.38
2019-01-21T06:54:19.544Z,101440.64
2019-01-21T06:57:16.681Z,101433.73
2019-01-21T07:00:12.901Z,101435.53
2019-01-21T07:03:32.450Z,101435.53
2019-01-21T07:06:32.202Z,101446.63
2019-01-21T07:09:21.624Z,101443.59
2019-01-21T07:12:32.525Z,101464.25
2019-01-21T07:15:36.951Z,101464.25
2019-01-21T07:18:40.680Z,101464.25
2019-01-21T07:21:46.082Z,101467.72
2019-01-21T07:24:54.764Z,101474.24
2019-01-21T07:28:00.195Z,101474.24
2019-01-21T07:31:12.213Z,101480.71
2019-01-21T07:34:22.904Z,101481.61
2019-01-21T07:37:23.064Z,101481.61
2019-01-21T07:40:34.953Z,101489.20
2019-01-21T07:43:22.568Z,101485.42
2019-01-21T07:46:29.009Z,101482.22
2019-01-21T07:49:21.077Z,101482.22
2019-01-21T07:52:21.518Z,101482.50
2019-01-21T07:55:25.328Z,101474.86
2019-01-21T07:58:31.945Z,101478.81
2019-01-21T08:01:21.613Z,101473.58
2019-01-21T08:04:35.663Z,101484.50
2019-01-21T08:07:30.401Z,101478.66
2019-01-21T08:10:35.382Z,101484.02
2019-01-21T08:13:34.959Z,101480.72
2019-01-21T08:16:42.857Z,101484.72
2019-01-21T08:19:35.204Z,101484.72
2019-01-21T08:22:51.546Z,101484.27
2019-01-21T08:25:46.953Z,101487.72
2019-01-21T08:28:53.313Z,101499.93
2019-01-21T08:31:47.054Z,101499.93
2019-01-21T08:34:45.530Z,101518.64
2019-01-21T08:37:43.908Z,101514.63
2019-01-21T08:40:53.314Z,101518.09
2019-01-21T08:43:45.589Z,101517.99
2019-01-21T08:46:47.854Z,101518.02
2019-01-21T08:49:58.847Z,101518.02
2019-01-21T08:53:03.571Z,101515.44
2019-01-21T08:56:12.076Z,101519.10
2019-01-21T08:59:03.551Z,101512.88
2019-01-21T09:02:08.332Z,101520.81
2019-01-21T09:05:02.187Z,101520.81
2019-01-21T09:08:20.252Z,101525.03
2019-01-21T09:11:19.994Z,101525.55
2019-01-21T09:14:16.018Z,101527.36
2019-01-21T09:17:00.532Z,101527.36
2019-01-21T09:20:13.768Z,101530.44
2019-01-21T09:23:24.606Z,101530.44
2019-01-21T09:26:39.341Z,101531.07
2019-01-21T09:29:46.947Z,101522.97
2019-01-21T09:33:01.958Z,101533.02
2019-01-21T09:36:13.492Z,101530.87
2019-01-21T09:39:39.648Z,101526.42
2019-01-21T09:42:34.578Z,101531.42
2019-01-21T09:45:28.664Z,101533.88
2019-01-21T09:47:54.706Z,101531.53
2019-01-21T09:50:23.611Z,101527.83
2019-01-21T09:52:52.006Z,101533.20
2019-01-21T09:55:21.909Z,101530.47
2019-01-21T09:57:55.368Z,101524.09
2019-01-21T10:00:22.590Z,101528.59
2019-01-21T10:02:53.592Z,101527.63
2019-01-21T10:05:23.930Z,101527.94
2019-01-21T10:08:28.792Z,101529.13
2019-01-21T10:11:26.084Z,101527.39
2019-01-21T10:14:29.035Z,101530.44
2019-01-21T10:17:37.428Z,101525.59
2019-01-21T10:20:32.344Z,101527.59
2019-01-21T10:23:32.505Z,101530.44
2019-01-21T10:27:02.810Z,101527.44
2019-01-21T10:29:47.388Z,101522.17
2019-01-21T10:33:04.415Z,101528.01
2019-01-21T10:36:12.571Z,101526.40
2019-01-21T10:39:20.069Z,101531.44
2019-01-21T10:42:29.195Z,101526.84
2019-01-21T10:45:32.137Z,101530.62
2019-01-21T10:48:17.917Z,101515.30
2019-01-21T10:51:21.080Z,101515.30
2019-01-21T10:53:57.859Z,101513.42
2019-01-21T10:56:58.868Z,101520.63
2019-01-21T11:00:17.693Z,101521.18
2019-01-21T11:03:41.836Z,101526.95
2019-01-21T11:06:48.426Z,101521.98
2019-01-21T11:09:26.812Z,101521.98
2019-01-21T11:12:40.723Z,101519.13
2019-01-21T11:15:49.663Z,101514.56
2019-01-21T11:18:30.309Z,101511.25
2019-01-21T11:21:42.209Z,101509.22
2019-01-21T11:24:37.821Z,101513.55
2019-01-21T11:27:32.273Z,101513.69
2019-01-21T11:30:26.477Z,101511.71
2019-01-21T11:33:31.576Z,101516.19
2019-01-21T11:36:21.318Z,101513.00
2019-01-21T11:39:32.554Z,101510.97
2019-01-21T11:42:26.496Z,101512.80
2019-01-21T11:45:26.619Z,101514.48
2019-01-21T11:48:32.906Z,101510.36
2019-01-21T11:51:51.816Z,101508.42
2019-01-21T11:54:59.465Z,101509.98
2019-01-21T11:57:49.403Z,101514.00
2019-01-21T12:00:31.349Z,101523.91
2019-01-21T12:03:23.639Z,101518.33
2019-01-21T12:06:16.508Z,101526.09
2019-01-21T12:09:25.320Z,101524.09
2019-01-21T12:12:19.424Z,101516.15
2019-01-21T12:15:30.176Z,101519.84
2019-01-21T12:18:35.224Z,101515.14
2019-01-21T12:21:56.221Z,101516.43
2019-01-21T12:24:37.103Z,101517.80
2019-01-21T12:27:54.401Z,101519.69
2019-01-21T12:31:18.401Z,101512.86
2019-01-21T12:33:57.379Z,101508.66
2019-01-21T12:36:57.622Z,101510.91
2019-01-21T12:39:54.026Z,101515.70
2019-01-21T12:42:55.284Z,101516.17
2019-01-21T12:45:54.422Z,101519.72
2019-01-21T12:49:06.570Z,101511.55
2019-01-21T12:52:13.768Z,101512.79
2019-01-21T12:55:08.973Z,101512.42
2019-01-21T12:57:50.656Z,101506.97
2019-01-21T13:00:50.890Z,101509.17
2019-01-21T13:03:43.943Z,101512.22
2019-01-21T13:06:48.580Z,101508.67
2019-01-21T13:09:49.928Z,101514.20
2019-01-21T13:12:57.381Z,101516.38
2019-01-21T13:16:05.464Z,101516.72
2019-01-21T13:18:53.689Z,101519.38
2019-01-21T13:21:57.199Z,101518.47
2019-01-21T13:24:48.071Z,101515.89
2019-01-21T13:28:06.108Z,101514.80
2019-01-21T13:31:24.357Z,101512.68
2019-01-21T13:34:39.132Z,101516.52
2019-01-21T13:37:43.688Z,101523.44
2019-01-21T13:41:03.107Z,101513.51
2019-01-21T13:43:59.707Z,101516.22
2019-01-21T13:47:02.580Z,101520.44
2019-01-21T13:49:51.760Z,101518.59
2019-01-21T13:53:11.542Z,101522.89
2019-01-21T13:55:48.818Z,101516.80
2019-01-21T13:58:24.617Z,101523.55
2019-01-21T14:01:31.366Z,101526.00
2019-01-21T14:04:26.472Z,101522.04
2019-01-21T14:07:31.082Z,101518.53
2019-01-21T14:10:38.178Z,101513.28
2019-01-21T14:13:46.960Z,101521.78
2019-01-21T14:17:04.728Z,101522.27
2019-01-21T14:19:41.366Z,101521.78
2019-01-21T14:22:56.462Z,101519.19
2019-01-21T14:26:25.429Z,101521.39
2019-01-21T14:29:27.873Z,101520.48
2019-01-21T14:32:23.491Z,101522.19
2019-01-21T14:35:38.464Z,101521.39
2019-01-21T14:38:34.192Z,101523.61
2019-01-21T14:41:43.282Z,101529.66
2019-01-21T14:44:47.013Z,101531.45
2019-01-21T14:48:25.611Z,101529.66
2019-01-21T14:51:31.029Z,101524.49
2019-01-21T14:54:41.446Z,101520.48
2019-01-21T14:57:59.748Z,101522.97
2019-01-21T15:00:50.036Z,101522.02
2019-01-21T15:04:00.708Z,101527.08
2019-01-21T15:07:06.666Z,101525.80
2019-01-21T15:10:14.667Z,101517.03
2019-01-21T15:13:36.086Z,101523.53
2019-01-21T15:16:21.978Z,101524.78
2019-01-21T15:19:19.421Z,101525.61
2019-01-21T15:22:03.775Z,101525.66
2019-01-21T15:25:06.901Z,101522.20
2019-01-21T15:28:10.580Z,101521.37
2019-01-21T15:31:14.372Z,101521.31
2019-01-21T15:34:13.940Z,101521.31
2019-01-21T15:37:12.648Z,101521.86
2019-01-21T15:40:08.798Z,101521.45
2019-01-21T15:43:33.104Z,101526.48
2019-01-21T15:46:26.713Z,101527.23
2019-01-21T15:49:06.397Z,101525.89
2019-01-21T15:52:03.284Z,101522.89
2019-01-21T15:55:06.074Z,101518.73
2019-01-21T15:58:27.198Z,101518.73
2019-01-21T16:01:29.152Z,101516.98
2019-01-21T16:04:31.243Z,101522.66
2019-01-21T16:07:24.032Z,101523.20
2019-01-21T16:10:44.194Z,101518.47
2019-01-21T16:13:59.092Z,101519.66
2019-01-21T16:16:49.026Z,101512.27
2019-01-21T16:19:32.771Z,101512.27
2019-01-21T16:22:36.957Z,101520.85
2019-01-21T16:25:24.413Z,101518.73
2019-01-21T16:28:27.499Z,101515.19
2019-01-21T16:31:17.179Z,101525.20
2019-01-21T16:34:24.729Z,101529.81
2019-01-21T16:37:13.541Z,101531.34
2019-01-21T16:40:27.806Z,101530.24
2019-01-21T16:42:55.024Z,101535.48
2019-01-21T16:45:22.242Z,101536.98
2019-01-21T16:47:49.388Z,101536.02
2019-01-21T16:50:16.489Z,101530.52
2019-01-21T16:52:43.633Z,101533.66
2019-01-21T16:55:10.752Z,101541.59
2019-01-21T16:57:37.919Z,101541.59
2019-01-21T17:00:05.581Z,101538.13
2019-01-21T17:02:32.682Z,101538.95
2019-01-21T17:04:59.975Z,101537.11
2019-01-21T17:07:27.077Z,101539.70
2019-01-21T17:09:54.320Z,101545.47
2019-01-21T17:12:22.849Z,101544.77
2019-01-21T17:14:57.366Z,101539.27
2019-01-21T17:17:21.041Z,101537.98
2019-01-21T17:19:48.182Z,101549.20
2019-01-21T17:22:15.286Z,101541.45
2019-01-21T17:24:42.401Z,101541.45
2019-01-21T17:27:09.512Z,101540.56
2019-01-21T17:29:36.622Z,101536.97
2019-01-21T17:32:03.827Z,101536.51
2019-01-21T17:34:30.941Z,101534.39
2019-01-21T17:36:58.051Z,101534.80
2019-01-21T17:39:26.967Z,101537.52
2019-01-21T17:41:54.144Z,101539.55
2019-01-21T17:44:21.264Z,101545.55
2019-01-21T17:46:48.389Z,101539.09
2019-01-21T17:49:15.497Z,101544.64
2019-01-21T17:51:42.632Z,101542.88
2019-01-21T17:54:09.836Z,101538.95
2019-01-21T17:56:36.934Z,101539.42
2019-01-21T17:59:04.459Z,101532.41
2019-01-21T18:01:31.571Z,101541.54
2019-01-21T18:03:58.684Z,101545.33
2019-01-21T18:06:25.796Z,101544.03
2019-01-21T18:08:52.911Z,101543.11
2019-01-21T18:11:20.058Z,101536.98
2019-01-21T18:13:47.172Z,101540.39
2019-01-21T18:16:14.279Z,101533.52
2019-01-21T18:18:41.380Z,101533.19
2019-01-21T18:21:08.548Z,101535.48
2019-01-21T18:23:35.657Z,101535.95
2019-01-21T18:26:02.763Z,101537.71
2019-01-21T18:28:31.264Z,101537.66
2019-01-21T18:30:58.684Z,101532.41
2019-01-21T18:33:26.019Z,101529.69
2019-01-21T18:35:53.644Z,101526.23
2019-01-21T18:38:22.720Z,101527.94
2019-01-21T18:40:50.018Z,101525.81
2019-01-21T18:43:19.060Z,101529.83
2019-01-21T18:45:46.337Z,101528.53
2019-01-21T18:48:13.834Z,101529.55
2019-01-21T18:50:41.136Z,101528.75
2019-01-21T18:53:08.436Z,101524.47
2019-01-21T18:55:36.798Z,101531.85
2019-01-21T18:58:04.228Z,101537.16
2019-01-21T19:00:31.499Z,101535.86
2019-01-21T19:02:58.944Z,101534.23
2019-01-21T19:05:26.160Z,101532.95
2019-01-21T19:07:53.799Z,101526.02
2019-01-21T19:10:20.996Z,101523.44
2019-01-21T19:12:49.629Z,101524.78
2019-01-21T19:15:19.543Z,101522.33
2019-01-21T19:17:46.751Z,101515.97
2019-01-21T19:20:14.368Z,101521.27
2019-01-21T19:22:41.520Z,101518.27
2019-01-21T19:25:08.845Z,101524.36
2019-01-21T19:27:36.149Z,101527.49
2019-01-21T19:30:04.969Z,101537.00
2019-01-21T19:32:32.612Z,101533.67
2019-01-21T19:35:00.174Z,101528.50
2019-01-21T19:37:27.574Z,101528.17
2019-01-21T19:39:54.731Z,101528.30
2019-01-21T19:42:21.974Z,101530.89
2019-01-21T19:44:49.097Z,101531.34
2019-01-21T19:47:16.205Z,101521.84
2019-01-21T19:49:43.325Z,101518.42
2019-01-21T19:52:10.497Z,101525.34
2019-01-21T19:54:37.998Z,101520.26
2019-01-21T19:57:05.605Z,101523.26
2019-01-21T19:59:32.732Z,101521.97
2019-01-21T20:01:59.862Z,101515.55
2019-01-21T20:04:26.969Z,101517.72
2019-01-21T20:06:54.100Z,101520.80
2019-01-21T20:09:21.199Z,101516.38
2019-01-21T20:11:48.324Z,101521.13
2019-01-21T20:14:15.459Z,101515.97
2019-01-21T20:16:42.551Z,101512.09
2019-01-21T20:19:09.872Z,101518.97
2019-01-21T20:21:38.296Z,101517.26
2019-01-21T20:24:05.568Z,101513.80
2019-01-21T20:26:32.921Z,101507.33
2019-01-21T20:29:00.871Z,101503.87
2019-01-21T20:31:28.323Z,101509.84
2019-01-21T20:33:56.118Z,101515.50
2019-01-21T20:36:23.407Z,101513.84
2019-01-21T20:38:50.724Z,101513.84
2019-01-21T20:41:18.274Z,101516.56
2019-01-21T20:43:45.406Z,101509.63
2019-01-21T20:46:12.585Z,101508.80
2019-01-21T20:48:39.720Z,101510.17
2019-01-21T20:51:06.866Z,101510.17
2019-01-21T20:53:33.974Z,101511.93
2019-01-21T20:56:01.103Z,101509.39
2019-01-21T20:58:28.243Z,101508.98
2019-01-21T21:00:56.521Z,101509.05
2019-01-21T21:03:26.347Z,101505.77
2019-01-21T21:05:53.571Z,101508.02
2019-01-21T21:08:20.941Z,101500.72
2019-01-21T21:10:56.484Z,101498.59
2019-01-21T21:13:23.710Z,101501.27
2019-01-21T21:15:54.200Z,101503.56
2019-01-21T21:18:21.347Z,101501.85
2019-01-21T21:20:53.614Z,101503.19
2019-01-21T21:23:22.757Z,101498.44
2019-01-21T21:25:52.730Z,101506.73
2019-01-21T21:28:19.969Z,101502.90
2019-01-21T21:30:47.729Z,101500.39
2019-01-21T21:33:17.836Z,101497.80
2019-01-21T21:35:45.235Z,101490.51
2019-01-21T21:38:12.566Z,101489.67
2019-01-21T21:40:40.089Z,101498.39
2019-01-21T21:43:07.549Z,101496.22
2019-01-21T21:45:36.538Z,101481.99
2019-01-21T21:48:06.611Z,101485.45
2019-01-21T21:50:35.655Z,101484.16
2019-01-21T21:53:03.992Z,101489.75
2019-01-21T21:55:31.137Z,101481.58
2019-01-21T21:58:00.316Z,101484.63
2019-01-21T22:00:28.479Z,101485.91
2019-01-21T22:02:56.992Z,101490.30
2019-01-21T22:05:25.431Z,101487.70
2019-01-21T22:07:54.464Z,101482.99
2019-01-21T22:10:23.846Z,101482.70
2019-01-21T22:12:51.448Z,101481.86
2019-01-21T22:15:19.955Z,101483.23
2019-01-21T22:17:49.092Z,101481.57
2019-01-21T22:20:19.586Z,101481.28
2019-01-21T22:22:48.001Z,101477.94
2019-01-21T22:25:15.796Z,101476.30
2019-01-21T22:27:44.208Z,101479.81
2019-01-21T22:30:16.715Z,101474.30
2019-01-21T22:32:43.880Z,101471.83
2019-01-21T22:35:11.223Z,101468.82
2019-01-21T22:37:38.421Z,101463.23
2019-01-21T22:40:07.699Z,101470.53
2019-01-21T22:42:35.042Z,101466.65
2019-01-21T22:45:04.649Z,101461.47
2019-01-21T22:47:31.905Z,101463.69
2019-01-21T22:50:01.071Z,101456.42
2019-01-21T22:52:28.688Z,101461.22
2019-01-21T22:54:56.018Z,101451.82
2019-01-21T22:57:24.344Z,101452.77
2019-01-21T22:59:51.565Z,101454.52
2019-01-21T23:02:18.765Z,101445.50
2019-01-21T23:04:47.756Z,101451.10
2019-01-21T23:07:15.326Z,101452.52
2019-01-21T23:09:42.633Z,101446.50
2019-01-21T23:12:09.746Z,101448.33
2019-01-21T23:14:36.840Z,101447.49
2019-01-21T23:17:06.890Z,101445.44
2019-01-21T23:19:35.078Z,101440.27
2019-01-21T23:22:02.274Z,101449.32
2019-01-21T23:24:29.741Z,101441.93
2019-01-21T23:26:56.823Z,101440.27
2019-01-21T23:29:23.942Z,101438.13
2019-01-21T23:31:52.867Z,101435.20
2019-01-21T23:34:20.048Z,101433.56
2019-01-21T23:36:47.205Z,101433.14
2019-01-21T23:39:14.568Z,101428.38
2019-01-21T23:41:43.483Z,101426.67
2019-01-21T23:44:10.588Z,101424.00
2019-01-21T23:46:37.857Z,101430.13
2019-01-21T23:49:04.956Z,101423.28
2019-01-21T23:51:32.630Z,101420.77
2019-01-21T23:54:00.820Z,101422.70
2019-01-21T23:56:27.911Z,101418.44
2019-01-21T23:58:56.115Z,101419.81
